Time;durP1;ratioP1;P1;durP2;ratioP2;P2;SDS_P1;SDS_P2;PMS_P1;PMS_P2;Temp;Humidity;BMP_temperature;BMP_pressure;BME280_temperature;BME280_humidity;BME280_pressure;Samples;Min_cycle;Max_cycle;Signal;HPM_P1;HPM_P2
2023/01/30 00:01:30;;;;;;;21.20;10.30;;;-3.00;99.90;;;-4.09;100.00;97886.56;5011509;28;20040;-40
2023/01/30 00:03:55;;;;;;;16.02;9.13;;;-3.00;99.90;;;-4.11;100.00;97874.44;5010184;28;20341;-40
2023/01/30 00:06:21;;;;;;;17.27;9.50;;;-3.00;99.90;;;-4.11;100.00;97880.50;5011184;28;20477;-40
2023/01/30 00:08:47;;;;;;;16.10;9.10;;;-3.00;99.90;;;-4.11;100.00;97865.03;5008309;28;20556;-40
2023/01/30 00:11:16;;;;;;;17.73;9.48;;;-3.00;99.90;;;-4.11;100.00;97859.88;5007751;28;20044;-40
2023/01/30 00:13:43;;;;;;;18.02;10.05;;;-3.00;99.90;;;-4.14;100.00;97843.47;5009257;28;20041;-40
2023/01/30 00:16:09;;;;;;;15.27;9.55;;;-3.00;99.90;;;-4.14;100.00;97834.03;5011557;28;20057;-40
2023/01/30 00:18:36;;;;;;;17.70;10.07;;;-3.00;99.90;;;-4.13;100.00;97824.59;5012286;28;20037;-40
2023/01/30 00:21:05;;;;;;;17.70;9.25;;;-3.00;99.90;;;-4.16;100.00;97825.41;5011837;28;20038;-40
2023/01/30 00:23:33;;;;;;;17.40;9.85;;;-3.00;99.90;;;-4.20;100.00;97830.41;5001779;28;20025;-40
2023/01/30 00:25:59;;;;;;;19.00;10.32;;;-3.00;99.90;;;-4.18;100.00;97837.38;5006770;28;20038;-40
2023/01/30 00:28:26;;;;;;;18.05;9.90;;;-3.00;99.90;;;-4.13;100.00;97838.34;5010027;28;20033;-40
2023/01/30 00:30:54;;;;;;;19.02;9.82;;;-2.90;99.90;;;-4.12;100.00;97832.38;5007207;28;20685;-40
2023/01/30 00:33:22;;;;;;;17.40;9.73;;;-3.00;99.90;;;-4.10;100.00;97827.25;5011343;28;20033;-40
2023/01/30 00:35:50;;;;;;;19.90;10.00;;;-2.90;99.90;;;-4.11;100.00;97823.81;5013018;28;20064;-40
2023/01/30 00:38:17;;;;;;;18.27;9.60;;;-2.90;99.90;;;-4.11;100.00;97816.09;5010278;28;20101;-39
2023/01/30 00:40:43;;;;;;;18.55;10.13;;;-2.90;99.90;;;-4.15;100.00;97808.22;5008769;28;20033;-40
2023/01/30 00:48:45;;;;;;;16.95;9.38;;;-2.90;99.90;;;-4.13;100.00;97824.59;5005989;28;20099;-40
2023/01/30 00:51:10;;;;;;;16.15;9.40;;;-2.90;99.90;;;-4.10;100.00;97830.69;5010176;28;20112;-39
2023/01/30 00:53:36;;;;;;;18.63;10.23;;;-2.90;99.90;;;-4.10;100.00;97846.16;5004371;28;20025;-40
2023/01/30 00:56:02;;;;;;;22.27;10.35;;;-2.90;99.90;;;-4.12;100.00;97837.53;5009304;28;20229;-40
2023/01/30 00:58:28;;;;;;;20.77;10.80;;;-2.90;99.90;;;-4.21;100.00;97855.31;5008734;28;20167;-40
2023/01/30 01:00:55;;;;;;;18.15;10.32;;;-2.90;99.90;;;-4.18;100.00;97868.28;4991057;28;20029;-40
2023/01/30 01:03:21;;;;;;;20.83;10.52;;;-2.90;99.90;;;-4.29;100.00;97878.28;5010013;28;20890;-40
2023/01/30 01:05:47;;;;;;;20.48;10.40;;;-3.00;99.90;;;-4.36;100.00;97890.91;4986122;28;20404;-40
2023/01/30 01:08:12;;;;;;;21.10;10.90;;;-3.10;99.90;;;-4.36;100.00;97901.19;5008540;28;20265;-40
2023/01/30 01:10:38;;;;;;;17.95;9.80;;;-3.10;99.90;;;-4.41;100.00;97903.66;5004005;28;20168;-40
2023/01/30 01:13:05;;;;;;;19.98;9.82;;;-3.10;99.90;;;-4.45;100.00;97900.13;5008290;28;20033;-40
2023/01/30 01:15:32;;;;;;;21.23;10.45;;;-3.20;99.90;;;-4.56;100.00;97890.31;5000767;28;21123;-40
2023/01/30 01:17:57;;;;;;;19.23;10.07;;;-3.20;99.90;;;-4.60;100.00;97890.19;4988391;28;20038;-40
2023/01/30 01:20:23;;;;;;;20.45;10.25;;;-3.20;99.90;;;-4.70;100.00;97877.00;5009488;28;20049;-40
2023/01/30 01:22:54;;;;;;;19.70;11.38;;;-3.30;99.90;;;-4.57;100.00;97894.59;5007750;28;20504;-40
2023/01/30 01:25:21;;;;;;;20.65;11.40;;;-3.30;99.90;;;-4.56;100.00;97901.47;5013474;28;20044;-40
2023/01/30 01:27:47;;;;;;;23.35;11.77;;;-3.30;99.90;;;-4.47;100.00;97895.72;5011116;28;20038;-39
2023/01/30 01:30:13;;;;;;;18.33;10.60;;;-3.30;99.90;;;-4.60;100.00;97895.34;5012485;28;20056;-39
2023/01/30 01:32:39;;;;;;;22.35;11.95;;;-3.30;99.90;;;-4.55;100.00;97923.81;5013904;28;20235;-39
2023/01/30 01:35:05;;;;;;;22.65;11.02;;;-3.30;99.90;;;-4.56;100.00;97908.31;5015456;28;20037;-39
2023/01/30 01:37:31;;;;;;;18.80;9.85;;;-3.30;99.90;;;-4.62;100.00;97899.59;5011181;28;20041;-39
2023/01/30 01:42:41;;;;;;;19.75;9.40;;;-3.30;99.90;;;-4.48;100.00;97891.44;5014171;28;20076;-40
2023/01/30 01:45:15;;;;;;;18.20;9.95;;;-3.30;99.90;;;-4.43;100.00;97900.16;4993211;28;20116;-39
2023/01/30 01:48:04;;;;;;;18.02;10.77;;;-3.20;99.90;;;-4.44;100.00;97895.81;5013786;28;20595;-39
2023/01/30 01:50:58;;;;;;;19.15;10.27;;;-3.20;99.90;;;-4.35;100.00;97892.66;4999121;28;20025;-39
2023/01/30 01:53:30;;;;;;;18.38;10.18;;;-3.10;99.90;;;-4.27;100.00;97893.75;5000886;28;20037;-40
2023/01/30 01:55:58;;;;;;;19.73;10.40;;;-3.00;99.90;;;-4.17;100.00;97900.91;5016324;28;20925;-39
2023/01/30 01:58:46;;;;;;;17.88;10.30;;;-2.90;99.90;;;-4.01;100.00;97893.63;5015821;28;20068;-40
2023/01/30 02:01:13;;;;;;;17.23;10.13;;;-2.80;99.90;;;-4.04;100.00;97884.09;4996654;28;20021;-39
2023/01/30 02:03:44;;;;;;;17.85;9.70;;;-2.80;99.90;;;-3.96;100.00;97897.22;5015204;28;20494;-39
2023/01/30 02:06:11;;;;;;;17.25;9.60;;;-2.80;99.90;;;-3.98;100.00;97898.84;4999845;28;20025;-40
2023/01/30 02:08:41;;;;;;;21.55;11.15;;;-2.70;99.90;;;-3.99;100.00;97903.13;5012477;28;20045;-40
2023/01/30 02:11:41;;;;;;;16.40;10.02;;;-2.70;99.90;;;-3.89;100.00;97905.16;5012267;28;20037;-39
2023/01/30 02:14:08;;;;;;;20.10;10.63;;;-2.70;99.90;;;-3.78;100.00;97907.16;5012413;28;20444;-40
2023/01/30 02:16:36;;;;;;;19.40;10.65;;;-2.60;99.90;;;-3.74;100.00;97902.13;5012620;28;20095;-40
2023/01/30 02:19:02;;;;;;;18.15;9.85;;;-2.50;99.90;;;-3.79;100.00;97883.06;5009031;28;20789;-40
2023/01/30 02:21:52;;;;;;;14.80;9.00;;;-2.60;99.90;;;-3.80;100.00;97888.19;5011581;28;20103;-39
2023/01/30 02:25:08;;;;;;;17.80;9.77;;;-2.70;99.90;;;-4.16;100.00;97838.28;5011339;28;20544;-39
2023/01/30 02:28:07;;;;;;;16.95;9.10;;;-2.70;99.90;;;-3.94;100.00;97877.53;5011356;28;20044;-39
2023/01/30 02:31:14;;;;;;;16.42;9.10;;;-2.80;99.90;;;-4.07;100.00;97850.53;4979348;28;23942;-39
2023/01/30 02:33:56;;;;;;;17.52;9.52;;;-2.80;99.90;;;-4.06;100.00;97857.44;4997867;28;20050;-38
2023/01/30 02:36:53;;;;;;;20.52;10.10;;;-2.90;99.90;;;-4.07;100.00;97861.72;4997150;28;20036;-39
2023/01/30 02:39:39;;;;;;;16.00;9.43;;;-2.90;99.90;;;-4.25;100.00;97866.34;5006000;28;20064;-39
2023/01/30 02:42:24;;;;;;;18.73;10.05;;;-2.90;99.90;;;-4.11;100.00;97880.50;5011362;28;20021;-40
2023/01/30 02:45:01;;;;;;;16.83;9.82;;;-2.90;99.90;;;-4.14;100.00;97841.75;5014059;28;20579;-39
2023/01/30 02:47:33;;;;;;;17.55;9.65;;;-2.90;99.90;;;-4.16;100.00;97821.94;4995307;28;20900;-39
2023/01/30 02:50:13;;;;;;;15.45;9.50;;;-3.00;99.90;;;-4.19;100.00;97834.75;4994509;28;20041;-40
2023/01/30 02:52:39;;;;;;;17.98;10.05;;;-3.00;99.90;;;-4.19;100.00;97861.38;5002530;28;20543;-39
2023/01/30 02:55:19;;;;;;;15.77;9.23;;;-3.00;99.90;;;-4.27;100.00;97844.81;5039624;22;20084;-52
2023/01/30 02:57:45;;;;;;;18.08;9.80;;;-3.10;99.90;;;-4.25;100.00;97843.16;5045517;28;20039;-49
2023/01/30 03:00:16;;;;;;;17.48;10.15;;;-3.10;99.90;;;-4.28;100.00;97835.34;5045505;28;20400;-48
2023/01/30 03:03:19;;;;;;;15.75;9.23;;;-3.10;99.90;;;-4.32;100.00;97833.53;5046232;28;20036;-49
2023/01/30 03:06:04;;;;;;;19.48;9.90;;;-3.10;99.90;;;-4.33;100.00;97808.59;5010098;28;20493;-48
2023/01/30 03:08:44;;;;;;;20.17;10.40;;;-3.20;99.90;;;-4.37;100.00;97796.47;5028168;28;20040;-49
2023/01/30 03:11:10;;;;;;;18.35;10.75;;;-3.20;99.90;;;-4.32;100.00;97797.47;5027359;28;20020;-48
2023/01/30 03:13:58;;;;;;;18.75;9.80;;;-3.10;99.90;;;-4.26;100.00;97784.75;5005674;28;20112;-48
2023/01/30 03:16:39;;;;;;;20.17;11.18;;;-3.10;99.90;;;-4.17;100.00;97791.88;5023451;28;20583;-49
2023/01/30 03:19:11;;;;;;;18.00;9.75;;;-3.00;99.90;;;-4.06;100.00;97780.13;5011218;28;20058;-50
2023/01/30 03:21:43;;;;;;;22.90;11.73;;;-2.90;99.90;;;-3.99;100.00;97752.84;5032798;28;20017;-51
2023/01/30 03:24:10;;;;;;;22.98;10.85;;;-2.80;99.90;;;-3.88;100.00;97738.50;5023778;28;20031;-53
2023/01/30 03:26:44;;;;;;;20.63;10.98;;;-2.70;99.90;;;-3.70;100.00;97723.50;5025264;28;20111;-48
2023/01/30 03:29:10;;;;;;;21.92;11.73;;;-2.50;99.90;;;-3.60;100.00;97695.38;5026906;28;20037;-49
2023/01/30 03:31:35;;;;;;;20.70;11.30;;;-2.40;99.90;;;-3.46;100.00;97681.09;5018609;28;20029;-51
2023/01/30 03:34:01;;;;;;;18.77;10.07;;;-2.30;99.90;;;-3.46;100.00;97652.75;5019258;28;20120;-52
2023/01/30 03:36:27;;;;;;;19.90;10.90;;;-2.20;99.90;;;-3.22;100.00;97682.50;5019261;28;20388;-52
2023/01/30 03:38:52;;;;;;;18.77;10.60;;;-2.10;99.90;;;-3.23;100.00;97661.00;5028676;28;21715;-52
2023/01/30 03:41:18;;;;;;;15.77;9.88;;;-1.90;99.90;;;-2.99;100.00;97677.81;5011256;28;20060;-51
2023/01/30 03:43:44;;;;;;;18.55;10.07;;;-1.90;99.90;;;-2.90;100.00;97684.03;5027261;28;20203;-51
2023/01/30 03:46:09;;;;;;;18.63;10.55;;;-1.80;99.90;;;-2.83;100.00;97695.34;5017016;28;20663;-51
2023/01/30 03:48:35;;;;;;;17.02;9.60;;;-1.70;99.90;;;-2.77;100.00;97702.34;5024492;28;20033;-52
2023/01/30 03:51:01;;;;;;;17.55;9.30;;;-1.60;99.90;;;-2.70;100.00;97704.22;5028611;28;21844;-50
2023/01/30 03:53:26;;;;;;;19.85;9.45;;;-1.50;99.90;;;-2.64;100.00;97706.91;5023538;28;20698;-53
2023/01/30 03:55:52;;;;;;;18.35;9.38;;;-1.50;99.90;;;-2.54;100.00;97731.22;5028173;28;20033;-52
2023/01/30 03:58:18;;;;;;;17.20;9.35;;;-1.40;99.90;;;-2.47;100.00;97732.22;5028681;28;20090;-52
2023/01/30 04:00:43;;;;;;;15.35;9.25;;;-1.40;99.90;;;-2.47;100.00;97721.91;5026314;28;20028;-52
2023/01/30 04:03:09;;;;;;;14.60;8.85;;;-1.30;99.90;;;-2.36;100.00;97729.00;5027599;28;20152;-52
2023/01/30 04:05:35;;;;;;;13.65;8.43;;;-1.20;99.90;;;-2.35;100.00;97715.25;5020886;28;22585;-48
2023/01/30 04:08:00;;;;;;;14.80;8.10;;;-1.20;99.90;;;-2.28;100.00;97723.09;5024730;28;20460;-49
2023/01/30 04:10:26;;;;;;;15.20;8.52;;;-1.20;99.90;;;-2.24;100.00;97723.19;5025352;28;20105;-49
2023/01/30 04:12:52;;;;;;;18.55;8.55;;;-1.10;99.90;;;-2.41;100.00;97696.16;5026261;28;20513;-50
2023/01/30 04:15:18;;;;;;;14.55;8.25;;;-1.10;99.90;;;-2.26;100.00;97721.41;5028311;28;20155;-50
2023/01/30 04:17:44;;;;;;;15.25;8.38;;;-1.10;99.90;;;-2.25;100.00;97726.63;5026813;28;20044;-53
2023/01/30 04:20:10;;;;;;;13.55;7.85;;;-1.10;99.90;;;-2.22;100.00;97731.84;5012554;28;20082;-52
2023/01/30 04:22:36;;;;;;;13.95;8.48;;;-1.10;99.90;;;-2.20;100.00;97725.00;5008631;28;20047;-52
2023/01/30 04:25:02;;;;;;;15.75;8.48;;;-1.10;99.90;;;-2.26;100.00;97722.31;5024522;28;20036;-53
2023/01/30 04:27:28;;;;;;;14.23;7.90;;;-1.10;99.90;;;-2.26;100.00;97721.41;5021368;28;20300;-50
2023/01/30 04:29:54;;;;;;;13.52;8.10;;;-1.10;99.90;;;-2.25;100.00;97726.63;5024796;28;20041;-48
2023/01/30 04:32:20;;;;;;;12.75;7.57;;;-1.20;99.90;;;-2.24;100.00;97728.38;5031633;28;20099;-53
2023/01/30 04:34:45;;;;;;;16.58;7.78;;;-1.10;99.90;;;-2.23;100.00;97716.31;5030414;28;20041;-53
2023/01/30 04:37:11;;;;;;;14.13;7.60;;;-1.10;99.90;;;-2.12;100.00;97718.25;5028973;28;20028;-52
2023/01/30 04:39:37;;;;;;;15.68;7.90;;;-1.00;99.90;;;-2.05;100.00;97719.22;5026629;28;20033;-49
2023/01/30 04:42:03;;;;;;;12.80;7.78;;;-1.00;99.90;;;-1.99;100.00;97726.22;5023535;28;20479;-51
2023/01/30 04:44:29;;;;;;;14.95;8.13;;;-0.90;99.90;;;-1.93;100.00;97722.03;5020570;28;20477;-52
2023/01/30 04:46:55;;;;;;;14.85;8.23;;;-0.80;99.90;;;-1.87;100.00;97730.75;5025125;28;20114;-52
2023/01/30 04:49:20;;;;;;;13.23;7.57;;;-0.80;99.90;;;-1.87;100.00;97735.91;5023773;28;20049;-50
2023/01/30 04:51:46;;;;;;;12.15;7.00;;;-0.80;99.90;;;-1.85;100.00;97735.06;5021328;28;21610;-49
2023/01/30 04:54:12;;;;;;;13.45;7.65;;;-0.70;99.90;;;-1.83;100.00;97717.91;5022572;28;20629;-48
2023/01/30 04:56:38;;;;;;;16.33;7.10;;;-0.70;99.90;;;-1.76;100.00;97724.03;5023163;28;20036;-48
2023/01/30 04:59:03;;;;;;;11.88;7.43;;;-0.70;99.90;;;-1.74;100.00;97724.94;5030681;28;20515;-50
2023/01/30 05:01:37;;;;;;;11.73;7.32;;;-0.60;99.90;;;-1.68;100.00;97724.19;5025996;28;20689;-52
2023/01/30 05:04:04;;;;;;;14.68;7.82;;;-0.60;99.90;;;-1.63;100.00;97722.53;5009045;28;20029;-52
2023/01/30 05:06:31;;;;;;;11.00;6.97;;;-0.50;99.90;;;-1.59;100.00;97714.84;5026215;28;20056;-49
2023/01/30 05:08:58;;;;;;;12.68;7.07;;;-0.50;99.90;;;-1.53;100.00;97719.22;5027511;28;20606;-50
2023/01/30 05:11:26;;;;;;;12.15;6.65;;;-0.40;99.90;;;-1.52;100.00;97702.88;5029877;28;20032;-50
2023/01/30 05:13:52;;;;;;;12.98;6.95;;;-0.40;99.90;;;-1.46;100.00;97705.56;5024449;28;20516;-49
2023/01/30 05:16:20;;;;;;;12.63;7.15;;;-0.40;99.90;;;-1.45;100.00;97707.31;5023423;28;20064;-51
2023/01/30 05:18:46;;;;;;;12.60;6.90;;;-0.40;99.90;;;-1.50;100.00;97688.25;5014461;28;20622;-50
2023/01/30 05:21:15;;;;;;;12.73;7.13;;;-0.30;99.90;;;-1.42;100.00;97691.84;5023543;28;20548;-51
2023/01/30 05:23:42;;;;;;;12.50;7.00;;;-0.30;99.90;;;-1.42;100.00;97686.66;5026268;28;20033;-51
2023/01/30 05:26:08;;;;;;;11.90;7.38;;;-0.30;99.90;;;-1.45;100.00;97686.59;5028015;28;20047;-52
2023/01/30 05:28:34;;;;;;;12.07;7.78;;;-0.40;99.90;;;-1.45;100.00;97698.69;5029375;28;20033;-53
2023/01/30 05:31:06;;;;;;;12.23;6.97;;;-0.40;99.90;;;-1.41;100.00;97690.13;5027877;28;20055;-49
2023/01/30 05:33:33;;;;;;;10.80;6.82;;;-0.40;99.90;;;-1.41;100.00;97679.75;5017485;28;20048;-52
2023/01/30 05:35:59;;;;;;;9.77;6.38;;;-0.30;99.90;;;-1.42;100.00;97663.38;5021185;28;20135;-49
2023/01/30 05:38:25;;;;;;;11.82;6.88;;;-0.30;99.90;;;-1.39;100.00;97658.22;5022591;28;20530;-51
2023/01/30 05:41:17;;;;;;;12.90;6.93;;;-0.30;99.90;;;-1.40;100.00;97638.41;5019980;28;20181;-50
2023/01/30 05:43:43;;;;;;;13.07;6.95;;;-0.30;99.90;;;-1.37;100.00;97656.53;5013741;28;20306;-50
2023/01/30 05:46:11;;;;;;;12.23;7.18;;;-0.30;99.90;;;-1.39;100.00;97663.41;5023868;28;20051;-51
2023/01/30 05:48:37;;;;;;;13.45;7.45;;;-0.30;99.90;;;-1.36;100.00;97667.78;5020584;28;20044;-53
2023/01/30 05:51:03;;;;;;;11.68;7.00;;;-0.30;99.90;;;-1.36;100.00;97655.69;5016817;28;20045;-53
2023/01/30 05:53:36;;;;;;;12.93;7.13;;;-0.20;99.90;;;-1.29;100.00;97663.53;5028817;28;20484;-53
2023/01/30 05:56:04;;;;;;;11.50;7.22;;;-0.20;99.90;;;-1.28;100.00;97673.03;5021619;28;20068;-52
2023/01/30 05:58:31;;;;;;;11.40;6.80;;;-0.20;99.90;;;-1.27;100.00;97672.22;5030834;28;20065;-50
2023/01/30 06:01:07;;;;;;;11.88;7.00;;;-0.20;99.90;;;-1.25;100.00;97686.03;5029853;28;21013;-50
2023/01/30 06:03:33;;;;;;;13.85;7.05;;;-0.20;99.90;;;-1.21;100.00;97683.50;5028514;28;20029;-51
2023/01/30 06:06:01;;;;;;;9.48;6.30;;;-0.10;99.90;;;-1.23;100.00;97666.22;5019770;28;20141;-49
2023/01/30 06:08:27;;;;;;;10.65;6.93;;;-0.10;99.90;;;-1.14;100.00;97670.66;5025954;28;20111;-53
2023/01/30 06:10:52;;;;;;;9.93;6.43;;;-0.10;99.90;;;-1.09;100.00;97680.22;5032929;28;20186;-53
2023/01/30 06:13:18;;;;;;;12.50;6.68;;;-0.10;99.90;;;-1.07;100.00;97680.25;5027571;28;20571;-52
2023/01/30 06:15:44;;;;;;;10.35;5.78;;;0.00;99.90;;;-1.10;100.00;97675.00;5020772;28;20032;-53
2023/01/30 06:18:10;;;;;;;12.25;7.13;;;0.00;99.90;;;-1.00;100.00;97672.56;5021466;28;20211;-53
2023/01/30 06:20:35;;;;;;;11.43;6.70;;;0.00;99.90;;;-1.04;100.00;97660.44;5016677;28;20094;-52
2023/01/30 06:23:01;;;;;;;12.23;6.30;;;0.00;99.90;;;-1.07;100.00;97665.56;5018199;28;20028;-50
2023/01/30 06:25:27;;;;;;;10.73;6.28;;;0.00;99.90;;;-1.16;100.00;97666.31;5016906;28;20481;-51
2023/01/30 06:27:52;;;;;;;10.82;6.50;;;-0.10;99.90;;;-1.21;100.00;97664.50;5019090;28;20853;-51
2023/01/30 06:30:18;;;;;;;11.35;6.53;;;-0.10;99.90;;;-1.25;100.00;97653.25;5014899;28;20129;-49
2023/01/30 06:32:44;;;;;;;9.82;6.35;;;-0.10;99.90;;;-1.25;100.00;97648.06;5019095;28;20469;-47
2023/01/30 06:35:10;;;;;;;10.93;6.28;;;-0.20;99.90;;;-1.20;100.00;97661.94;5019973;28;20036;-50
2023/01/30 06:37:35;;;;;;;9.55;6.22;;;-0.10;99.90;;;-1.20;100.00;97653.31;5019549;28;20033;-55
2023/01/30 06:40:01;;;;;;;11.07;6.95;;;-0.10;99.90;;;-1.09;100.00;97640.53;5017167;28;20439;-55
2023/01/30 06:42:27;;;;;;;12.23;7.32;;;-0.10;99.90;;;-1.10;100.00;97647.41;5021984;28;20721;-53
2023/01/30 06:44:52;;;;;;;10.82;6.53;;;0.00;99.90;;;-1.09;100.00;97646.56;5021759;28;20020;-55
2023/01/30 06:47:18;;;;;;;9.35;7.07;;;0.00;99.90;;;-1.06;100.00;97646.63;5020596;28;20032;-55
2023/01/30 06:49:44;;;;;;;9.73;6.10;;;0.00;99.90;;;-1.00;100.00;97638.91;5018791;28;20117;-55
2023/01/30 06:52:09;;;;;;;12.35;6.65;;;0.00;99.90;;;-1.00;100.00;97638.06;5020700;28;20032;-56
2023/01/30 06:54:35;;;;;;;10.70;6.55;;;0.10;99.90;;;-1.09;100.00;97607.75;5016991;28;20396;-53
2023/01/30 06:57:01;;;;;;;10.85;6.13;;;0.10;99.90;;;-0.95;100.00;97628.63;5015620;28;20553;-55
2023/01/30 06:59:26;;;;;;;9.73;6.15;;;0.10;99.90;;;-0.91;100.00;97626.94;5017428;28;20037;-46
2023/01/30 07:01:52;;;;;;;10.38;6.65;;;0.10;99.90;;;-0.87;100.00;97629.56;5013805;28;20044;-56
2023/01/30 07:04:18;;;;;;;13.15;7.07;;;0.20;99.90;;;-0.91;100.00;97635.56;5014744;28;20025;-56
2023/01/30 07:06:45;;;;;;;12.77;7.10;;;0.20;99.90;;;-0.90;100.00;97633.84;5013350;28;20036;-55
2023/01/30 07:09:11;;;;;;;11.52;6.60;;;0.20;99.90;;;-0.86;100.00;97646.84;5012167;28;20881;-54
2023/01/30 07:11:36;;;;;;;11.50;6.57;;;0.20;99.90;;;-0.80;100.00;97651.25;5021488;28;20025;-56
2023/01/30 07:14:02;;;;;;;12.60;6.13;;;0.20;99.90;;;-0.79;100.00;97650.38;5017491;28;20048;-55
2023/01/30 07:16:28;;;;;;;9.07;5.47;;;0.30;99.90;;;-0.74;100.00;97661.66;5013805;28;20037;-56
2023/01/30 07:18:57;;;;;;;7.85;5.47;;;0.30;99.90;;;-0.82;100.00;97652.94;5017818;28;20420;-54
2023/01/30 07:21:26;;;;;;;10.18;5.63;;;0.30;99.90;;;-0.80;100.00;97665.03;5019666;28;20032;-56
2023/01/30 07:23:51;;;;;;;9.73;5.75;;;0.30;99.90;;;-0.70;100.00;97668.63;5013592;28;20035;-55
2023/01/30 07:26:17;;;;;;;9.52;6.13;;;0.40;99.90;;;-0.66;100.00;97673.00;5013895;28;20041;-55
2023/01/30 07:28:43;;;;;;;9.40;5.97;;;0.40;99.90;;;-0.64;100.00;97668.69;5010610;28;20515;-56
2023/01/30 07:31:08;;;;;;;11.38;6.25;;;0.40;99.90;;;-0.60;100.00;97682.56;5012135;28;20979;-57
2023/01/30 07:33:34;;;;;;;11.38;6.03;;;0.40;99.90;;;-0.54;100.00;97672.25;5020749;28;20041;-57
2023/01/30 07:36:00;;;;;;;8.88;5.70;;;0.50;99.90;;;-0.55;100.00;97659.31;5017786;28;20035;-56
2023/01/30 07:38:25;;;;;;;10.77;5.75;;;0.50;99.90;;;-0.43;100.00;97677.53;5018364;28;20041;-57
2023/01/30 07:40:51;;;;;;;10.60;6.03;;;0.60;99.90;;;-0.35;100.00;97677.66;5025313;28;20052;-56
2023/01/30 07:43:17;;;;;;;9.38;6.00;;;0.70;99.90;;;-0.40;100.00;97690.53;5025477;28;20033;-56
2023/01/30 07:45:46;;;;;;;9.63;5.38;;;0.70;99.90;;;-0.35;100.00;97691.47;5017493;28;20255;-56
2023/01/30 07:48:15;;;;;;;8.98;5.20;;;0.70;99.90;;;-0.29;100.00;97701.88;5007699;28;20033;-53
2023/01/30 07:50:42;;;;;;;8.57;4.78;;;0.80;99.90;;;-0.23;100.00;97695.94;5024601;28;20751;-54
2023/01/30 07:53:14;;;;;;;9.27;4.75;;;0.80;99.90;;;-0.17;100.00;97701.16;5020626;28;20036;-55
2023/01/30 07:55:40;;;;;;;8.93;5.25;;;0.90;99.90;;;-0.09;100.00;97699.53;5020351;28;20075;-55
2023/01/30 07:58:06;;;;;;;8.82;5.30;;;0.90;99.90;;;-0.02;100.00;97690.06;5021104;28;20326;-56
2023/01/30 08:00:34;;;;;;;8.73;5.35;;;1.00;99.90;;;0.01;100.00;97676.28;5019228;28;20174;-55
2023/01/30 08:03:00;;;;;;;9.52;5.40;;;1.10;99.90;;;0.04;100.00;97672.00;5023045;28;20157;-55
2023/01/30 08:05:26;;;;;;;9.13;4.85;;;1.10;99.90;;;0.04;100.00;97671.13;5020586;28;20029;-56
2023/01/30 08:07:55;;;;;;;9.10;5.25;;;1.10;99.90;;;0.06;100.00;97667.69;5022009;28;20393;-56
2023/01/30 08:10:20;;;;;;;9.73;5.65;;;1.10;99.90;;;0.07;100.00;97684.09;5023266;28;20051;-55
2023/01/30 08:12:50;;;;;;;7.55;4.85;;;1.20;99.90;;;0.11;100.00;97678.97;5015614;28;20501;-55
2023/01/30 08:15:15;;;;;;;8.85;4.80;;;1.10;99.90;;;0.21;100.00;97692.00;5004352;28;20033;-56
2023/01/30 08:18:07;;;;;;;10.63;5.43;;;1.20;99.90;;;0.32;100.00;97714.63;5016818;28;20038;-53
2023/01/30 08:20:33;;;;;;;10.63;5.95;;;1.40;99.90;;;0.30;100.00;97718.03;5012053;28;20331;-55
2023/01/30 08:23:00;;;;;;;8.80;5.20;;;1.30;99.90;;;0.11;100.00;97689.34;5015887;28;20124;-56
2023/01/30 08:25:27;;;;;;;9.27;5.45;;;1.30;99.90;;;0.24;100.00;97686.88;5022929;28;20024;-56
2023/01/30 08:27:53;;;;;;;9.82;5.45;;;1.30;99.90;;;0.23;100.00;97692.88;5019032;28;20033;-55
2023/01/30 08:30:19;;;;;;;11.77;5.68;;;1.20;99.90;;;0.18;100.00;97696.31;5019800;28;20083;-56
2023/01/30 08:32:45;;;;;;;9.57;5.57;;;1.30;99.90;;;0.28;100.00;97675.66;5025806;28;20040;-56
2023/01/30 08:35:11;;;;;;;10.10;5.40;;;1.30;99.90;;;0.27;100.00;97653.13;5013654;28;20322;-55
2023/01/30 08:37:41;;;;;;;9.82;5.80;;;1.30;99.90;;;0.40;100.00;97642.00;5010636;28;20045;-55
2023/01/30 08:40:08;;;;;;;8.82;5.47;;;1.40;99.90;;;0.42;100.00;97636.84;5015098;28;20047;-54
2023/01/30 08:42:34;;;;;;;9.43;6.35;;;1.50;99.90;;;0.63;100.00;97655.16;5025130;28;20048;-57
2023/01/30 08:45:00;;;;;;;8.13;5.40;;;1.60;99.90;;;0.75;100.00;97657.81;5008964;28;20025;-55
2023/01/30 08:47:25;;;;;;;8.93;5.82;;;1.80;99.90;;;0.83;100.00;97657.00;5017422;28;20050;-55
2023/01/30 08:49:51;;;;;;;8.27;5.10;;;1.90;99.90;;;0.86;100.00;97644.91;5024175;28;20045;-56
2023/01/30 08:52:20;;;;;;;10.63;5.78;;;1.90;99.90;;;0.95;100.00;97644.06;5025028;28;20115;-55
2023/01/30 08:54:46;;;;;;;10.63;5.90;;;2.00;99.90;;;1.04;100.00;97635.44;5032757;23;20012;-40
2023/01/30 08:57:13;;;;;;;11.98;5.20;;;2.10;99.90;;;1.14;100.00;97645.03;5022125;28;20033;-39
2023/01/30 08:59:39;;;;;;;8.27;4.90;;;2.10;99.90;;;1.18;100.00;97630.31;5028571;28;20289;-39
2023/01/30 09:02:08;;;;;;;8.65;4.70;;;2.20;99.90;;;1.21;100.00;97618.22;5020582;28;20429;-39
2023/01/30 09:04:34;;;;;;;7.10;4.53;;;2.20;99.90;;;1.16;100.00;97617.31;4997399;28;20016;-38
2023/01/30 09:07:00;;;;;;;8.15;4.72;;;2.20;99.90;;;0.99;100.00;97580.00;4997742;28;20545;-39
2023/01/30 09:09:28;;;;;;;7.03;4.72;;;2.20;99.90;;;1.21;100.00;97576.63;4999300;28;20076;-40
2023/01/30 09:11:54;;;;;;;8.65;4.63;;;2.30;99.90;;;1.39;100.00;97581.03;5002722;28;20044;-40
2023/01/30 09:14:20;;;;;;;6.22;4.20;;;2.40;99.90;;;1.51;100.00;97560.25;5002769;28;20030;-39
2023/01/30 09:16:54;;;;;;;6.72;4.45;;;2.70;99.90;;;1.91;100.00;97601.88;5006247;28;20393;-40
2023/01/30 09:19:29;;;;;;;6.40;4.20;;;3.00;99.90;;;1.98;100.00;97563.75;5006271;28;20551;-39
2023/01/30 09:21:55;;;;;;;6.72;4.10;;;3.20;99.90;;;2.33;100.00;97594.06;4990400;28;20191;-38
2023/01/30 09:24:25;;;;;;;6.68;4.13;;;3.30;99.90;;;2.34;100.00;97606.22;5008059;28;20122;-40
2023/01/30 09:26:58;;;;;;;4.60;3.50;;;3.40;99.90;;;2.29;100.00;97607.97;5003197;28;20458;-40
2023/01/30 09:29:27;;;;;;;6.32;3.65;;;3.30;99.90;;;2.33;100.00;97603.63;5003816;28;20048;-40
2023/01/30 09:31:55;;;;;;;6.60;4.30;;;3.30;99.90;;;2.25;100.00;97599.28;4988754;28;20514;-40
2023/01/30 09:34:26;;;;;;;7.93;4.07;;;3.30;99.90;;;2.22;100.00;97585.41;5007719;28;20347;-40
2023/01/30 09:36:59;;;;;;;5.53;3.50;;;3.20;99.90;;;2.07;100.00;97587.16;4998823;28;20583;-38
2023/01/30 09:39:25;;;;;;;6.78;3.88;;;3.20;99.90;;;1.99;100.00;97594.09;5008275;28;20143;-39
2023/01/30 09:42:39;;;;;;;6.05;3.88;;;3.20;99.90;;;1.97;100.00;97607.97;4990333;28;20457;-40
2023/01/30 09:45:57;;;;;;;5.40;3.65;;;3.00;99.90;;;1.77;100.00;97566.34;4986598;28;20029;-39
2023/01/30 09:48:48;;;;;;;5.90;3.33;;;3.00;99.90;;;2.03;100.00;97585.44;5014686;28;20041;-39
2023/01/30 09:51:25;;;;;;;6.28;3.38;;;3.10;99.90;;;2.13;100.00;97588.88;5004630;28;20069;-39
2023/01/30 09:54:14;;;;;;;5.95;3.40;;;3.20;99.90;;;2.18;100.00;97578.47;5009298;28;20033;-39
2023/01/30 09:56:40;;;;;;;5.18;2.90;;;3.20;99.90;;;2.20;100.00;97574.13;5003129;28;20044;-39
2023/01/30 09:59:06;;;;;;;6.07;3.50;;;3.20;99.90;;;2.19;100.00;97562.88;5004958;28;20026;-40
2023/01/30 10:02:01;;;;;;;5.32;2.80;;;3.30;99.90;;;2.34;100.00;97546.34;5008427;28;20158;-39
2023/01/30 10:04:39;;;;;;;4.95;3.08;;;3.30;99.90;;;2.44;100.00;97563.69;4984245;28;20022;-39
2023/01/30 10:07:35;;;;;;;5.20;2.97;;;3.50;99.90;;;2.56;100.00;97559.31;5001738;28;20433;-39
2023/01/30 10:10:24;;;;;;;4.68;3.17;;;3.60;99.90;;;2.76;100.00;97546.25;4992405;28;20096;-39
2023/01/30 10:13:01;;;;;;;4.85;3.05;;;3.70;99.90;;;2.88;100.00;97551.41;5007055;28;20033;-39
2023/01/30 10:15:43;;;;;;;5.57;2.80;;;3.90;99.90;;;3.00;100.00;97532.25;5007201;28;20046;-39
2023/01/30 10:18:44;;;;;;;5.30;3.22;;;4.00;99.90;;;3.08;100.00;97538.28;5003892;28;20045;-39
2023/01/30 10:22:01;;;;;;;4.72;2.53;;;4.10;99.90;;;3.20;100.00;97530.41;5007524;28;20037;-39
2023/01/30 10:24:44;;;;;;;3.40;2.60;;;4.20;99.90;;;3.12;100.00;97511.31;5007478;28;20033;-39
2023/01/30 10:27:15;;;;;;;5.22;2.97;;;4.20;99.90;;;3.15;100.00;97519.13;5008848;28;20299;-39
2023/01/30 10:29:47;;;;;;;5.30;3.00;;;4.20;99.90;;;3.17;100.00;97524.34;5003202;28;20036;-41
2023/01/30 10:32:31;;;;;;;6.15;3.33;;;4.20;99.90;;;3.11;100.00;97533.06;4987819;28;20489;-40